Time,TemperatureF,DewpointF,PressureIn,WindDirection,WindDirectionDegrees,WindSpeedMPH,WindSpeedGustMPH,Humidity,HourlyPrecipIn,Conditions,Clouds,dailyrainin,SolarRadiationWatts/m^2,SoftwareType,DateUTC
2013-01-31 07:02:00,25.0,24.0,-100.00,WSW,240,2.0,3.0,96,0.00,,,0.00,0.000000,,2013-01-31 14:02:00,
2013-01-31 07:11:00,25.0,24.0,-100.00,WSW,240,2.0,3.0,96,0.00,,,0.00,0.000000,,2013-01-31 14:11:00,
2013-01-31 07:32:00,25.0,24.0,-100.00,SW,218,1.0,4.0,96,0.00,,,0.00,0.000000,,2013-01-31 14:32:00,
2013-01-31 07:42:00,25.0,24.0,-100.00,SW,218,1.0,4.0,96,0.00,,,0.00,0.000000,,2013-01-31 14:42:00,
2013-01-31 07:52:00,25.0,24.0,-100.00,SW,218,1.0,4.0,96,0.00,,,0.00,0.000000,,2013-01-31 14:52:00,
2013-01-31 08:02:00,25.0,24.0,-100.00,SW,218,1.0,4.0,96,0.00,,,0.00,0.000000,,2013-01-31 15:02:00,
2013-01-31 08:11:00,25.0,24.0,-100.00,SW,218,1.0,4.0,96,0.00,,,0.00,0.000000,,2013-01-31 15:11:00,
2013-01-31 08:32:00,25.0,24.0,-100.00,SW,228,1.0,4.0,96,0.00,,,0.00,0.000000,,2013-01-31 15:32:00,
2013-01-31 08:42:00,25.0,24.0,-100.00,SW,228,1.0,4.0,96,0.00,,,0.00,0.000000,,2013-01-31 15:42:00,
2013-01-31 08:52:00,25.0,24.0,-100.00,SW,228,1.0,4.0,96,0.00,,,0.00,0.000000,,2013-01-31 15:52:00,
2013-01-31 09:03:00,25.0,24.0,-100.00,SW,228,1.0,4.0,96,0.00,,,0.00,0.000000,,2013-01-31 16:03:00,
2013-01-31 09:12:00,25.0,24.0,-100.00,SW,228,1.0,4.0,96,0.00,,,0.00,0.000000,,2013-01-31 16:12:00,
2013-01-31 09:42:00,25.0,24.0,-100.00,WSW,244,1.0,2.0,96,0.00,,,0.00,0.000000,,2013-01-31 16:42:00,
2013-01-31 09:52:00,25.0,24.0,-100.00,WSW,244,1.0,2.0,96,0.00,,,0.00,0.000000,,2013-01-31 16:52:00,
2013-01-31 10:02:00,25.0,24.0,-100.00,WSW,244,1.0,2.0,96,0.00,,,0.00,0.000000,,2013-01-31 17:02:00,
2013-01-31 10:12:00,25.0,24.0,-100.00,WSW,244,1.0,2.0,96,0.00,,,0.00,0.000000,,2013-01-31 17:12:00,
2013-01-31 10:44:00,26.0,25.0,-100.00,WSW,239,1.0,4.0,95,0.00,,,0.00,5.000000,,2013-01-31 17:44:00,
2013-01-31 10:53:00,26.0,25.0,-100.00,WSW,239,1.0,4.0,95,0.00,,,0.00,5.000000,,2013-01-31 17:53:00,
2013-01-31 11:02:00,26.0,25.0,-100.00,WSW,239,1.0,4.0,95,0.00,,,0.00,5.000000,,2013-01-31 18:02:00,
2013-01-31 11:12:00,26.0,25.0,-100.00,WSW,239,1.0,4.0,95,0.00,,,0.00,5.000000,,2013-01-31 18:12:00,
2013-01-31 11:32:00,28.0,26.0,-100.00,WSW,246,2.0,3.0,93,0.00,,,0.00,19.000000,,2013-01-31 18:32:00,
2013-01-31 11:43:00,28.0,26.0,-100.00,WSW,246,2.0,3.0,93,0.00,,,0.00,19.000000,,2013-01-31 18:43:00,
2013-01-31 11:52:00,28.0,26.0,-100.00,WSW,246,2.0,3.0,93,0.00,,,0.00,19.000000,,2013-01-31 18:52:00,
2013-01-31 12:02:00,28.0,26.0,-100.00,WSW,246,2.0,3.0,93,0.00,,,0.00,19.000000,,2013-01-31 19:02:00,
2013-01-31 12:11:00,28.0,26.0,-100.00,WSW,246,2.0,3.0,93,0.00,,,0.00,19.000000,,2013-01-31 19:11:00,
2013-01-31 12:33:00,31.0,28.0,-100.00,WSW,257,2.0,3.0,90,0.00,,,0.00,28.000000,,2013-01-31 19:33:00,
2013-01-31 12:43:00,31.0,28.0,-100.00,WSW,257,2.0,3.0,90,0.00,,,0.00,28.000000,,2013-01-31 19:43:00,
2013-01-31 12:52:00,31.0,28.0,-100.00,WSW,257,2.0,3.0,90,0.00,,,0.00,28.000000,,2013-01-31 19:52:00,
2013-01-31 13:02:00,31.0,28.0,-100.00,WSW,257,2.0,3.0,90,0.00,,,0.00,28.000000,,2013-01-31 20:02:00,
2013-01-31 13:11:00,31.0,28.0,-100.00,WSW,257,2.0,3.0,90,0.00,,,0.00,28.000000,,2013-01-31 20:11:00,
2013-01-31 14:42:00,29.0,27.0,-100.00,WSW,241,1.0,4.0,91,-99.99,,,0.01,20.000000,,2013-01-31 21:42:00,
2013-01-31 14:52:00,29.0,27.0,-100.00,WSW,241,1.0,4.0,91,-99.99,,,0.01,20.000000,,2013-01-31 21:52:00,
2013-01-31 15:02:00,29.0,27.0,-100.00,WSW,241,1.0,4.0,91,-99.99,,,0.01,20.000000,,2013-01-31 22:02:00,
2013-01-31 15:11:00,29.0,27.0,-100.00,WSW,241,1.0,4.0,91,-99.99,,,0.01,20.000000,,2013-01-31 22:11:00,
2013-01-31 15:33:00,29.0,27.0,-100.00,WSW,249,1.0,3.0,92,0.01,,,0.02,15.000000,,2013-01-31 22:33:00,
2013-01-31 15:42:00,29.0,27.0,-100.00,WSW,249,1.0,3.0,92,0.01,,,0.02,15.000000,,2013-01-31 22:42:00,
2013-01-31 15:52:00,29.0,27.0,-100.00,WSW,249,1.0,3.0,92,0.01,,,0.02,15.000000,,2013-01-31 22:52:00,
2013-01-31 16:02:00,29.0,27.0,-100.00,WSW,249,1.0,3.0,92,0.01,,,0.02,15.000000,,2013-01-31 23:02:00,
2013-01-31 16:12:00,29.0,27.0,-100.00,WSW,249,1.0,3.0,92,0.01,,,0.02,15.000000,,2013-01-31 23:12:00,
2013-01-31 16:42:00,28.0,26.0,-100.00,WSW,248,1.0,3.0,93,0.01,,,0.03,12.000000,,2013-01-31 23:42:00,
2013-01-31 16:52:00,28.0,26.0,-100.00,WSW,248,1.0,3.0,93,0.01,,,0.03,12.000000,,2013-01-31 23:52:00,
2013-01-31 17:01:00,28.0,26.0,-100.00,WSW,248,1.0,3.0,93,0.01,,,0.03,12.000000,,2013-02-01 00:01:00,
2013-01-31 17:11:00,28.0,26.0,-100.00,WSW,248,1.0,3.0,93,0.01,,,0.03,12.000000,,2013-02-01 00:11:00,
2013-01-31 17:32:00,28.0,27.0,-100.00,WSW,238,1.0,3.0,94,0.00,,,0.03,6.000000,,2013-02-01 00:32:00,
2013-01-31 17:42:00,28.0,27.0,-100.00,WSW,238,1.0,3.0,94,0.00,,,0.03,6.000000,,2013-02-01 00:42:00,
2013-01-31 17:52:00,28.0,27.0,-100.00,WSW,238,1.0,3.0,94,0.00,,,0.03,6.000000,,2013-02-01 00:52:00,
2013-01-31 18:01:00,28.0,27.0,-100.00,WSW,238,1.0,3.0,94,0.00,,,0.03,6.000000,,2013-02-01 01:01:00,
2013-01-31 18:11:00,28.0,27.0,-100.00,WSW,238,1.0,3.0,94,0.00,,,0.03,6.000000,,2013-02-01 01:11:00,
2013-01-31 18:32:00,28.0,27.0,-100.00,WSW,244,2.0,3.0,94,0.00,,,-99.99,8.000000,,2013-02-01 01:32:00,
2013-01-31 18:42:00,28.0,27.0,-100.00,WSW,244,2.0,3.0,94,0.00,,,-99.99,8.000000,,2013-02-01 01:42:00,
2013-01-31 18:52:00,28.0,27.0,-100.00,WSW,244,2.0,3.0,94,0.00,,,-99.99,8.000000,,2013-02-01 01:52:00,
2013-01-31 19:01:00,28.0,27.0,-100.00,WSW,244,2.0,3.0,94,0.00,,,-99.99,8.000000,,2013-02-01 02:01:00,
2013-01-31 19:11:00,28.0,27.0,-100.00,WSW,244,2.0,3.0,94,0.00,,,-99.99,8.000000,,2013-02-01 02:11:00,
2013-01-31 19:42:00,26.0,25.0,-100.00,WSW,248,1.0,3.0,96,0.00,,,0.03,1.000000,,2013-02-01 02:42:00,
2013-01-31 19:52:00,26.0,25.0,-100.00,WSW,248,1.0,3.0,96,0.00,,,0.03,1.000000,,2013-02-01 02:52:00,
2013-01-31 20:01:00,26.0,25.0,-100.00,WSW,248,1.0,3.0,96,0.00,,,0.03,1.000000,,2013-02-01 03:01:00,
2013-01-31 20:11:00,26.0,25.0,-100.00,WSW,248,1.0,3.0,96,0.00,,,0.03,1.000000,,2013-02-01 03:11:00,
2013-01-31 20:33:00,25.0,24.0,-100.00,WSW,237,1.0,3.0,96,0.00,,,0.03,0.000000,,2013-02-01 03:33:00,
2013-01-31 20:42:00,25.0,24.0,-100.00,WSW,237,1.0,3.0,96,0.00,,,0.03,0.000000,,2013-02-01 03:42:00,
2013-01-31 20:52:00,25.0,24.0,-100.00,WSW,237,1.0,3.0,96,0.00,,,0.03,0.000000,,2013-02-01 03:52:00,
2013-01-31 21:02:00,25.0,24.0,-100.00,WSW,237,1.0,3.0,96,0.00,,,0.03,0.000000,,2013-02-01 04:02:00,
2013-01-31 21:11:00,25.0,24.0,-100.00,WSW,237,1.0,3.0,96,0.00,,,0.03,0.000000,,2013-02-01 04:11:00,
2013-01-31 21:32:00,25.0,24.0,-100.00,WSW,251,2.0,3.0,96,0.00,,,0.03,0.000000,,2013-02-01 04:32:00,
2013-01-31 21:42:00,25.0,24.0,-100.00,WSW,251,2.0,3.0,96,0.00,,,0.03,0.000000,,2013-02-01 04:42:00,
2013-01-31 21:52:00,25.0,24.0,-100.00,WSW,251,2.0,3.0,96,0.00,,,0.03,0.000000,,2013-02-01 04:52:00,
2013-01-31 22:03:00,25.0,24.0,-100.00,WSW,251,2.0,3.0,96,0.00,,,0.03,0.000000,,2013-02-01 05:03:00,
2013-01-31 22:11:00,25.0,24.0,-100.00,WSW,251,2.0,3.0,96,0.00,,,0.03,0.000000,,2013-02-01 05:11:00,
2013-01-31 22:32:00,25.0,24.0,-100.00,WSW,253,2.0,3.0,96,0.00,,,0.03,0.000000,,2013-02-01 05:32:00,
2013-01-31 22:42:00,25.0,24.0,-100.00,WSW,253,2.0,3.0,96,0.00,,,0.03,0.000000,,2013-02-01 05:42:00,
2013-01-31 22:52:00,25.0,24.0,-100.00,WSW,253,2.0,3.0,96,0.00,,,0.03,0.000000,,2013-02-01 05:52:00,
2013-01-31 23:02:00,25.0,24.0,-100.00,WSW,253,2.0,3.0,96,0.00,,,0.03,0.000000,,2013-02-01 06:02:00,
2013-01-31 23:11:00,25.0,24.0,-100.00,WSW,253,2.0,3.0,96,0.00,,,0.03,0.000000,,2013-02-01 06:11:00,
2013-01-31 23:32:00,25.0,24.0,-100.00,WSW,253,1.0,3.0,96,0.00,,,0.03,0.000000,,2013-02-01 06:32:00,
2013-01-31 23:42:00,25.0,24.0,-100.00,WSW,253,1.0,3.0,96,0.00,,,0.03,0.000000,,2013-02-01 06:42:00,
2013-01-31 23:52:00,25.0,24.0,-100.00,WSW,253,1.0,3.0,96,0.00,,,0.03,0.000000,,2013-02-01 06:52:00,